This is the latest recevied weather packets stored in our database for station/object HB9ZRH-10. If no packets are shown the sender has not sent any weather packets the latest 10 day(s).
| Time | Temp. | Humidity | Pressure | Rain* | Wind** | Luminosity | Snow |
|---|---|---|---|---|---|---|---|
| 1778108848 | 17.78° C | 47% | 1010.8 hPa | - | - | - | - |
| 1778108548 | 18.33° C | 47% | 1010.7 hPa | - | - | - | - |
| 1778108248 | 19.44° C | 45% | 1010.7 hPa | - | - | - | - |
| 1778107948 | 19.44° C | 46% | 1010.8 hPa | - | - | - | - |
| 1778107648 | 19.44° C | 46% | 1010.8 hPa | - | - | - | - |
| 1778107348 | 18.89° C | 46% | 1010.8 hPa | - | - | - | - |
| 1778107048 | 17.22° C | 48% | 1010.7 hPa | - | - | - | - |
| 1778106749 | 18.33° C | 46% | 1010.7 hPa | - | - | - | - |
| 1778106448 | 21.11° C | 45% | 1010.7 hPa | - | - | - | - |
| 1778106148 | 21.11° C | 45% | 1010.7 hPa | - | - | - | - |
| 1778105848 | 20.56° C | 45% | 1010.6 hPa | - | - | - | - |
| 1778105548 | 20.56° C | 46% | 1010.6 hPa | - | - | - | - |
| 1778105248 | 20° C | 46% | 1010.7 hPa | - | - | - | - |
| 1778104948 | 19.44° C | 47% | 1010.7 hPa | - | - | - | - |
| 1778104648 | 17.22° C | 48% | 1010.7 hPa | - | - | - | - |
| 1778104348 | 15.56° C | 51% | 1010.8 hPa | - | - | - | - |
| 1778104048 | 12.78° C | 51% | 1010.8 hPa | - | - | - | - |
| 1778103748 | 13.33° C | 50% | 1010.8 hPa | - | - | - | - |
| 1778103448 | 15° C | 49% | 1010.7 hPa | - | - | - | - |
| 1778102936 | 17.78° C | 47% | 1010.6 hPa | - | - | - | - |
| 1778102636 | 18.89° C | 46% | 1010.7 hPa | - | - | - | - |
| 1778102336 | 20.56° C | 45% | 1010.7 hPa | - | - | - | - |
| 1778102036 | 19.44° C | 46% | 1010.8 hPa | - | - | - | - |
| 1778101736 | 15.56° C | 50% | 1010.8 hPa | - | - | - | - |
| 1778101436 | 13.33° C | 50% | 1010.8 hPa | - | - | - | - |
* Rain since midnight (hover to see other rain measurements)
** Current wind speed in m/s (hover to see current wind gust speed)